Time;durP1;ratioP1;P1;durP2;ratioP2;P2;SDS_P1;SDS_P2;PMS_P1;PMS_P2;Temp;Humidity;BMP_temperature;BMP_pressure;BME280_temperature;BME280_humidity;BME280_pressure;Samples;Min_cycle;Max_cycle;Signal;HPM_P1;HPM_P2
2023/08/16 00:00:24;;;;;;;8.70;1.77;;;;;;;;;;5052852;28;20211;-59
2023/08/16 00:02:50;;;;;;;6.00;2.17;;;;;;;;;;5053930;28;20745;-59
2023/08/16 00:05:15;;;;;;;6.07;1.40;;;;;;;;;;5053527;28;20233;-59
2023/08/16 00:07:40;;;;;;;6.78;2.45;;;;;;;;;;5053271;28;20238;-59
2023/08/16 00:10:12;;;;;;;5.32;1.95;;;;;;;;;;5053462;28;20653;-58
2023/08/16 00:12:37;;;;;;;3.75;1.52;;;;;;;;;;5054112;28;20207;-59
2023/08/16 00:15:03;;;;;;;6.60;1.52;;;;;;;;;;5052520;28;20241;-59
2023/08/16 00:17:28;;;;;;;6.38;1.77;;;;;;;;;;5052473;28;20214;-59
2023/08/16 00:19:54;;;;;;;6.95;1.88;;;;;;;;;;5050345;28;20766;-59
2023/08/16 00:22:19;;;;;;;7.43;2.10;;;;;;;;;;5048279;28;20804;-59
2023/08/16 00:24:44;;;;;;;5.63;1.70;;;;;;;;;;5050920;28;20765;-59
2023/08/16 00:27:10;;;;;;;5.65;1.80;;;;;;;;;;5049553;28;20230;-59
2023/08/16 00:29:35;;;;;;;4.78;1.77;;;;;;;;;;5048484;28;20723;-59
2023/08/16 00:32:03;;;;;;;6.32;2.53;;;;;;;;;;5050865;28;20709;-59
2023/08/16 00:34:28;;;;;;;6.25;2.70;;;;;;;;;;5049531;28;20666;-59
2023/08/16 00:36:54;;;;;;;7.60;2.22;;;;;;;;;;5048807;28;20288;-59
2023/08/16 00:39:19;;;;;;;7.38;2.20;;;;;;;;;;5049186;28;20238;-59
2023/08/16 00:41:45;;;;;;;9.65;2.97;;;;;;;;;;5050137;28;20688;-59
2023/08/16 00:44:10;;;;;;;4.40;2.08;;;;;;;;;;5049148;28;20227;-59
2023/08/16 00:46:35;;;;;;;5.90;2.80;;;;;;;;;;5048891;28;20227;-59
2023/08/16 00:49:02;;;;;;;6.60;3.00;;;;;;;;;;5049187;28;20203;-60
2023/08/16 00:51:27;;;;;;;6.90;2.42;;;;;;;;;;5031382;28;20215;-59
2023/08/16 00:53:52;;;;;;;8.50;2.88;;;;;;;;;;5047616;28;20211;-59
2023/08/16 00:56:18;;;;;;;7.45;2.58;;;;;;;;;;5049147;28;20219;-59
2023/08/16 00:58:43;;;;;;;5.68;2.35;;;;;;;;;;5050260;28;20207;-59
2023/08/16 01:01:09;;;;;;;4.57;2.70;;;;;;;;;;5048156;28;20199;-59
2023/08/16 01:03:34;;;;;;;7.20;3.25;;;;;;;;;;5030645;28;20709;-59
2023/08/16 01:05:59;;;;;;;10.50;3.50;;;;;;;;;;5050004;28;20246;-59
2023/08/16 01:08:25;;;;;;;5.03;2.88;;;;;;;;;;5048923;28;20218;-59
2023/08/16 01:10:50;;;;;;;6.45;3.95;;;;;;;;;;5046866;28;20624;-59
2023/08/16 01:13:19;;;;;;;7.03;3.60;;;;;;;;;;5031810;28;20689;-59
2023/08/16 01:15:44;;;;;;;7.20;3.95;;;;;;;;;;5031927;28;20260;-59
2023/08/16 01:18:10;;;;;;;6.75;3.33;;;;;;;;;;5046725;28;21160;-59
2023/08/16 01:20:35;;;;;;;7.03;3.78;;;;;;;;;;5031825;28;20203;-59
2023/08/16 01:23:01;;;;;;;7.90;3.22;;;;;;;;;;5049174;28;20302;-59
2023/08/16 01:25:43;;;;;;;7.30;3.90;;;;;;;;;;5047727;28;20649;-59
2023/08/16 01:28:08;;;;;;;8.55;4.22;;;;;;;;;;5047190;28;20222;-59
2023/08/16 01:30:34;;;;;;;9.75;4.13;;;;;;;;;;5049096;28;20245;-59
2023/08/16 01:33:06;;;;;;;8.98;4.00;;;;;;;;;;5049517;28;20226;-59
2023/08/16 01:38:19;;;;;;;6.15;3.60;;;;;;;;;;5046401;28;20625;-59
2023/08/16 01:40:45;;;;;;;7.18;3.80;;;;;;;;;;5049090;28;20714;-59
2023/08/16 01:43:10;;;;;;;8.57;3.70;;;;;;;;;;5030427;28;20215;-59
2023/08/16 01:45:35;;;;;;;7.68;3.35;;;;;;;;;;5028373;28;20215;-59
2023/08/16 01:48:02;;;;;;;6.55;3.30;;;;;;;;;;5049141;28;20211;-59
2023/08/16 01:50:27;;;;;;;6.72;3.85;;;;;;;;;;5049109;28;20290;-59
2023/08/16 01:52:52;;;;;;;8.15;3.92;;;;;;;;;;5029164;28;20207;-59
2023/08/16 01:55:18;;;;;;;8.40;3.92;;;;;;;;;;5029641;28;20220;-59
2023/08/16 01:57:43;;;;;;;10.07;4.18;;;;;;;;;;5048886;28;20218;-59
2023/08/16 02:00:09;;;;;;;8.43;4.00;;;;;;;;;;5047309;28;20211;-58
2023/08/16 02:02:36;;;;;;;8.93;3.90;;;;;;;;;;5047243;28;20233;-59
2023/08/16 02:05:01;;;;;;;6.07;3.15;;;;;;;;;;5048244;28;20232;-59
2023/08/16 02:07:26;;;;;;;7.65;3.92;;;;;;;;;;5048674;28;20218;-59
2023/08/16 02:09:52;;;;;;;10.05;3.67;;;;;;;;;;5046395;28;20223;-59
2023/08/16 02:12:17;;;;;;;6.90;3.53;;;;;;;;;;5048134;28;20207;-59
2023/08/16 02:14:42;;;;;;;10.82;3.90;;;;;;;;;;5048394;28;20225;-59
2023/08/16 02:17:08;;;;;;;11.02;4.43;;;;;;;;;;5047041;28;20218;-59
2023/08/16 02:19:33;;;;;;;7.75;4.00;;;;;;;;;;5047039;28;20222;-59
2023/08/16 02:21:58;;;;;;;8.30;3.95;;;;;;;;;;5048937;28;20234;-59
2023/08/16 02:24:24;;;;;;;7.57;3.80;;;;;;;;;;5029669;28;20249;-59
2023/08/16 02:26:49;;;;;;;8.45;3.88;;;;;;;;;;5045798;28;20686;-59
2023/08/16 02:29:14;;;;;;;8.27;4.22;;;;;;;;;;5039287;28;20602;-59
2023/08/16 02:31:40;;;;;;;9.25;3.85;;;;;;;;;;5048813;28;20694;-59
2023/08/16 02:34:05;;;;;;;7.97;4.00;;;;;;;;;;5045434;28;20241;-59
2023/08/16 02:36:30;;;;;;;10.05;4.50;;;;;;;;;;5048019;28;20306;-59
2023/08/16 02:38:55;;;;;;;11.50;5.20;;;;;;;;;;5048057;28;20223;-59
2023/08/16 02:41:21;;;;;;;7.78;4.10;;;;;;;;;;5045588;28;20305;-59
2023/08/16 02:43:46;;;;;;;8.57;4.13;;;;;;;;;;5046745;28;20705;-59
2023/08/16 02:46:11;;;;;;;10.27;4.15;;;;;;;;;;5047700;28;20674;-59
2023/08/16 02:48:37;;;;;;;12.02;4.40;;;;;;;;;;5047964;28;20579;-59
2023/08/16 02:51:02;;;;;;;8.45;4.22;;;;;;;;;;5045564;28;20247;-59
2023/08/16 02:53:27;;;;;;;9.45;4.65;;;;;;;;;;5047874;28;20214;-59
2023/08/16 02:55:53;;;;;;;7.30;3.90;;;;;;;;;;5047672;28;20215;-59
2023/08/16 02:58:18;;;;;;;8.13;4.07;;;;;;;;;;5045866;28;20215;-59
2023/08/16 03:00:43;;;;;;;11.85;4.50;;;;;;;;;;5047388;28;20219;-59
2023/08/16 03:03:09;;;;;;;12.05;4.57;;;;;;;;;;5046766;28;20207;-59
2023/08/16 03:05:34;;;;;;;8.10;4.22;;;;;;;;;;5047220;28;20600;-59
2023/08/16 03:07:59;;;;;;;9.45;4.60;;;;;;;;;;5046305;28;20580;-59
2023/08/16 03:10:25;;;;;;;9.75;4.70;;;;;;;;;;5046824;28;20249;-59
2023/08/16 03:12:50;;;;;;;8.88;4.70;;;;;;;;;;5048255;28;20215;-59
2023/08/16 03:15:15;;;;;;;9.40;4.45;;;;;;;;;;5048802;28;20253;-59
2023/08/16 03:17:41;;;;;;;9.98;5.20;;;;;;;;;;5051634;28;20207;-59
2023/08/16 03:20:07;;;;;;;9.77;4.30;;;;;;;;;;5051962;28;20219;-59
2023/08/16 03:22:33;;;;;;;10.02;4.72;;;;;;;;;;5050033;28;20213;-59
2023/08/16 03:24:58;;;;;;;11.63;4.80;;;;;;;;;;5050481;28;20223;-59
2023/08/16 03:27:23;;;;;;;8.60;4.28;;;;;;;;;;5051455;28;20647;-59
2023/08/16 03:29:49;;;;;;;11.32;4.05;;;;;;;;;;5051068;28;20218;-59
2023/08/16 03:32:14;;;;;;;10.75;4.22;;;;;;;;;;5049492;28;21303;-59
2023/08/16 03:34:41;;;;;;;7.90;4.65;;;;;;;;;;5052084;28;20222;-59
2023/08/16 03:37:06;;;;;;;8.80;4.32;;;;;;;;;;5050678;28;20226;-59
2023/08/16 03:39:32;;;;;;;10.68;5.43;;;;;;;;;;5049272;28;20249;-59
2023/08/16 03:41:57;;;;;;;11.57;5.88;;;;;;;;;;5051461;28;20215;-59
2023/08/16 03:44:22;;;;;;;12.30;5.63;;;;;;;;;;5050447;28;20233;-59
2023/08/16 03:46:48;;;;;;;9.77;5.93;;;;;;;;;;5050378;28;20298;-59
2023/08/16 03:49:13;;;;;;;9.00;5.60;;;;;;;;;;5049776;28;20211;-59
2023/08/16 03:51:39;;;;;;;10.52;5.80;;;;;;;;;;5050933;28;20211;-59
2023/08/16 03:54:04;;;;;;;9.95;5.65;;;;;;;;;;5050658;28;20215;-59
2023/08/16 03:56:29;;;;;;;10.45;5.47;;;;;;;;;;5049052;28;20610;-59
2023/08/16 03:58:55;;;;;;;10.82;6.05;;;;;;;;;;5050986;28;20706;-59
2023/08/16 04:01:21;;;;;;;12.85;6.82;;;;;;;;;;5050636;28;20304;-59
2023/08/16 04:03:48;;;;;;;13.75;6.82;;;;;;;;;;5048523;28;20321;-58
2023/08/16 04:06:13;;;;;;;12.95;7.00;;;;;;;;;;5050030;28;20294;-59
2023/08/16 04:08:38;;;;;;;11.13;7.47;;;;;;;;;;5051289;28;20247;-59
2023/08/16 04:11:04;;;;;;;13.85;8.23;;;;;;;;;;5049311;28;20203;-59
2023/08/16 04:13:29;;;;;;;14.38;8.02;;;;;;;;;;5049183;28;20242;-59
2023/08/16 04:15:55;;;;;;;10.15;7.40;;;;;;;;;;5051181;28;20690;-59
2023/08/16 04:18:20;;;;;;;12.05;8.05;;;;;;;;;;5050450;28;20226;-59
2023/08/16 04:20:45;;;;;;;13.23;7.15;;;;;;;;;;5048325;28;20207;-59
2023/08/16 04:23:10;;;;;;;12.02;7.40;;;;;;;;;;5050391;28;20249;-59
2023/08/16 04:25:36;;;;;;;11.63;7.30;;;;;;;;;;5049428;28;20215;-59
2023/08/16 04:28:01;;;;;;;14.13;7.20;;;;;;;;;;5030086;28;20226;-59
2023/08/16 04:30:27;;;;;;;12.38;7.00;;;;;;;;;;5032465;28;20211;-59
2023/08/16 04:32:52;;;;;;;13.82;6.88;;;;;;;;;;5050524;28;20226;-59
2023/08/16 04:35:17;;;;;;;11.73;7.38;;;;;;;;;;5048842;28;20207;-59
2023/08/16 04:37:43;;;;;;;12.40;7.72;;;;;;;;;;5048992;28;20211;-59
2023/08/16 04:40:08;;;;;;;16.08;7.60;;;;;;;;;;5049813;28;20222;-59
2023/08/16 04:42:34;;;;;;;12.93;7.70;;;;;;;;;;5049518;28;20662;-59
2023/08/16 04:45:00;;;;;;;13.55;7.72;;;;;;;;;;5047888;28;20255;-59
2023/08/16 04:47:26;;;;;;;17.00;7.80;;;;;;;;;;5040830;28;20261;-59
2023/08/16 04:49:51;;;;;;;15.32;7.97;;;;;;;;;;5050374;28;20714;-59
2023/08/16 04:52:16;;;;;;;12.43;7.85;;;;;;;;;;5048234;28;20215;-59
2023/08/16 04:54:41;;;;;;;15.90;8.20;;;;;;;;;;5048635;28;20753;-59
2023/08/16 04:57:07;;;;;;;11.63;7.85;;;;;;;;;;5049520;28;20745;-59
2023/08/16 04:59:32;;;;;;;15.23;7.70;;;;;;;;;;5049445;28;20227;-59
2023/08/16 05:01:57;;;;;;;13.15;8.15;;;;;;;;;;5047737;28;20215;-59
2023/08/16 05:04:23;;;;;;;15.00;7.80;;;;;;;;;;5049644;28;20226;-59
2023/08/16 05:06:48;;;;;;;14.57;7.97;;;;;;;;;;5049929;28;20301;-59
2023/08/16 05:09:13;;;;;;;13.15;8.02;;;;;;;;;;5046426;28;20203;-59
2023/08/16 05:11:39;;;;;;;12.63;8.23;;;;;;;;;;5049849;28;20277;-59
2023/08/16 05:14:04;;;;;;;15.70;8.90;;;;;;;;;;5049246;28;20674;-59
2023/08/16 05:16:29;;;;;;;11.43;8.38;;;;;;;;;;5049876;28;20214;-59
2023/08/16 05:18:57;;;;;;;13.48;9.07;;;;;;;;;;5053215;28;20353;-59
2023/08/16 05:21:22;;;;;;;14.35;8.98;;;;;;;;;;5046864;28;20238;-59
2023/08/16 05:23:48;;;;;;;14.02;8.90;;;;;;;;;;5049556;28;20340;-59
2023/08/16 05:26:13;;;;;;;11.60;7.80;;;;;;;;;;5049521;28;20211;-59
2023/08/16 05:28:38;;;;;;;14.65;8.00;;;;;;;;;;5047251;28;20214;-59
2023/08/16 05:31:09;;;;;;;12.27;7.65;;;;;;;;;;5048496;28;20217;-59
2023/08/16 05:33:35;;;;;;;13.63;7.63;;;;;;;;;;5049624;28;20210;-59
2023/08/16 05:36:00;;;;;;;13.50;7.85;;;;;;;;;;5047466;28;20211;-59
2023/08/16 05:38:26;;;;;;;16.65;8.40;;;;;;;;;;5047179;28;20694;-59
2023/08/16 05:40:51;;;;;;;12.68;7.65;;;;;;;;;;5049798;28;20565;-59
2023/08/16 05:43:16;;;;;;;13.80;7.57;;;;;;;;;;5048377;28;20207;-59
2023/08/16 05:45:42;;;;;;;12.48;7.13;;;;;;;;;;5046587;28;20310;-59
2023/08/16 05:48:07;;;;;;;13.85;7.63;;;;;;;;;;5048941;28;20237;-59
2023/08/16 05:50:34;;;;;;;13.15;7.05;;;;;;;;;;5048655;28;20276;-59
2023/08/16 05:52:59;;;;;;;11.60;6.85;;;;;;;;;;5047371;28;20278;-59
2023/08/16 05:55:24;;;;;;;12.38;6.25;;;;;;;;;;5047936;28;20211;-59
2023/08/16 05:57:50;;;;;;;12.25;6.38;;;;;;;;;;5048118;28;20206;-59
2023/08/16 06:00:15;;;;;;;12.50;6.35;;;;;;;;;;5047792;28;20226;-59
2023/08/16 06:02:41;;;;;;;9.50;4.93;;;;;;;;;;5047333;28;20233;-59
2023/08/16 06:05:06;;;;;;;9.95;5.20;;;;;;;;;;5047741;28;20227;-59
2023/08/16 06:07:31;;;;;;;9.43;5.50;;;;;;;;;;5049169;28;20219;-59
2023/08/16 06:09:57;;;;;;;7.85;5.22;;;;;;;;;;5046453;28;20577;-59
2023/08/16 06:12:22;;;;;;;10.15;5.78;;;;;;;;;;5039336;28;20651;-59
2023/08/16 06:14:48;;;;;;;10.02;5.03;;;;;;;;;;5048745;28;20245;-59
2023/08/16 06:17:13;;;;;;;12.60;5.38;;;;;;;;;;5046562;28;20223;-59
2023/08/16 06:19:39;;;;;;;9.75;4.43;;;;;;;;;;5047330;28;20215;-59
2023/08/16 06:22:04;;;;;;;9.50;5.10;;;;;;;;;;5048321;28;20238;-59
2023/08/16 06:24:33;;;;;;;10.48;4.85;;;;;;;;;;5047659;28;20238;-59
2023/08/16 06:26:58;;;;;;;10.25;4.47;;;;;;;;;;5046413;28;20564;-59
2023/08/16 06:29:23;;;;;;;11.02;5.30;;;;;;;;;;5047782;28;20666;-59
2023/08/16 06:31:49;;;;;;;14.73;4.95;;;;;;;;;;5048387;28;20215;-59
2023/08/16 06:34:16;;;;;;;12.30;5.60;;;;;;;;;;5044925;28;20215;-59
2023/08/16 06:36:42;;;;;;;9.48;4.70;;;;;;;;;;5048513;28;20223;-59
2023/08/16 06:39:08;;;;;;;12.38;5.22;;;;;;;;;;5047634;28;20369;-59
2023/08/16 06:41:33;;;;;;;9.10;5.20;;;;;;;;;;5047106;28;20301;-59
2023/08/16 06:43:58;;;;;;;9.48;4.82;;;;;;;;;;5046539;28;20310;-59
2023/08/16 06:46:24;;;;;;;12.57;5.55;;;;;;;;;;5047705;28;20655;-59
2023/08/16 06:48:50;;;;;;;10.77;4.70;;;;;;;;;;5046782;28;20697;-59
2023/08/16 06:51:15;;;;;;;10.25;4.57;;;;;;;;;;5045545;28;20207;-59
2023/08/16 06:53:42;;;;;;;10.95;4.85;;;;;;;;;;5047974;28;20573;-59
2023/08/16 06:56:07;;;;;;;9.07;4.35;;;;;;;;;;5047328;28;20211;-59
2023/08/16 06:58:33;;;;;;;14.15;4.80;;;;;;;;;;5046481;28;20226;-59
2023/08/16 07:00:58;;;;;;;9.52;4.60;;;;;;;;;;5046764;28;20234;-59
2023/08/16 07:03:23;;;;;;;8.85;4.22;;;;;;;;;;5047379;28;20623;-59
2023/08/16 07:05:49;;;;;;;12.57;4.50;;;;;;;;;;5047278;28;20237;-59
2023/08/16 07:08:15;;;;;;;9.00;4.15;;;;;;;;;;5045497;28;20218;-59
2023/08/16 07:10:42;;;;;;;10.23;4.88;;;;;;;;;;5048184;28;20576;-59
2023/08/16 07:13:07;;;;;;;9.20;4.45;;;;;;;;;;5047414;28;20215;-59
2023/08/16 07:15:33;;;;;;;7.22;3.70;;;;;;;;;;5044671;28;20215;-59
2023/08/16 07:17:58;;;;;;;10.60;4.13;;;;;;;;;;5047856;28;20207;-59
2023/08/16 07:20:23;;;;;;;9.18;3.78;;;;;;;;;;5047170;28;20215;-59
2023/08/16 07:22:49;;;;;;;10.45;3.83;;;;;;;;;;5046013;28;20211;-59
2023/08/16 07:25:14;;;;;;;9.68;3.97;;;;;;;;;;5046431;28;20230;-59
2023/08/16 07:27:39;;;;;;;7.07;3.63;;;;;;;;;;5047715;28;20353;-59
2023/08/16 07:30:05;;;;;;;10.38;4.30;;;;;;;;;;5046214;28;20225;-59
2023/08/16 07:32:31;;;;;;;8.35;3.70;;;;;;;;;;5046040;28;20211;-59
2023/08/16 07:34:56;;;;;;;8.23;3.50;;;;;;;;;;5050895;28;20207;-59
2023/08/16 07:37:21;;;;;;;12.15;3.65;;;;;;;;;;5049793;28;20199;-59
2023/08/16 07:39:47;;;;;;;6.78;3.30;;;;;;;;;;5050497;28;20227;-59
2023/08/16 07:42:12;;;;;;;11.40;3.60;;;;;;;;;;5050112;28;20694;-59
2023/08/16 07:44:38;;;;;;;10.68;3.38;;;;;;;;;;5049934;28;20508;-59
2023/08/16 07:47:03;;;;;;;11.38;4.25;;;;;;;;;;5049866;28;20775;-59
2023/08/16 07:49:29;;;;;;;10.05;3.35;;;;;;;;;;5050237;28;20214;-59
2023/08/16 07:51:55;;;;;;;7.80;2.90;;;;;;;;;;5050047;28;20219;-59
2023/08/16 07:54:20;;;;;;;8.95;2.92;;;;;;;;;;5049903;28;20281;-59
2023/08/16 07:56:46;;;;;;;9.45;2.97;;;;;;;;;;5050327;28;20235;-59
2023/08/16 07:59:11;;;;;;;8.73;3.50;;;;;;;;;;5050240;28;20211;-59
2023/08/16 08:01:36;;;;;;;6.30;3.38;;;;;;;;;;5054136;28;20203;-59
2023/08/16 08:04:02;;;;;;;8.80;3.53;;;;;;;;;;5053115;28;20753;-60
2023/08/16 08:06:27;;;;;;;8.60;3.35;;;;;;;;;;5053639;28;20298;-59
2023/08/16 08:08:53;;;;;;;9.57;2.95;;;;;;;;;;5053788;28;20215;-59
2023/08/16 08:11:18;;;;;;;4.85;2.50;;;;;;;;;;5053065;28;20310;-59
2023/08/16 08:13:43;;;;;;;9.93;3.15;;;;;;;;;;5053708;28;20551;-59
2023/08/16 08:16:09;;;;;;;8.85;3.47;;;;;;;;;;5053091;28;20670;-59
2023/08/16 08:18:34;;;;;;;9.45;3.28;;;;;;;;;;5053246;28;20754;-59
2023/08/16 08:20:59;;;;;;;11.68;3.40;;;;;;;;;;5053961;28;20218;-59
2023/08/16 08:23:25;;;;;;;8.77;3.72;;;;;;;;;;5053066;28;20246;-59
2023/08/16 08:25:51;;;;;;;9.30;3.60;;;;;;;;;;5053158;28;20222;-59
2023/08/16 08:28:17;;;;;;;9.38;4.38;;;;;;;;;;5053376;28;20690;-59
2023/08/16 08:30:42;;;;;;;10.07;3.92;;;;;;;;;;5053110;28;20214;-59
2023/08/16 08:33:08;;;;;;;9.95;4.95;;;;;;;;;;5052379;28;20207;-59
2023/08/16 08:35:33;;;;;;;10.90;3.72;;;;;;;;;;5053535;28;20215;-59
2023/08/16 08:37:58;;;;;;;8.43;3.75;;;;;;;;;;5053229;28;20678;-59
2023/08/16 08:40:24;;;;;;;8.88;4.20;;;;;;;;;;5052336;28;20227;-59
2023/08/16 08:42:49;;;;;;;9.07;4.43;;;;;;;;;;5052930;28;20237;-59
2023/08/16 08:45:15;;;;;;;11.50;4.65;;;;;;;;;;5048335;28;20234;-59
2023/08/16 08:47:40;;;;;;;10.02;4.40;;;;;;;;;;5049522;28;20207;-59
2023/08/16 08:50:06;;;;;;;8.45;4.30;;;;;;;;;;5049331;28;20207;-59
2023/08/16 08:52:31;;;;;;;9.40;4.43;;;;;;;;;;5049355;28;20277;-59
2023/08/16 08:54:58;;;;;;;10.00;4.63;;;;;;;;;;5048301;28;20213;-59
2023/08/16 08:57:24;;;;;;;10.02;4.53;;;;;;;;;;5049954;28;20234;-59
2023/08/16 08:59:49;;;;;;;12.73;4.65;;;;;;;;;;5032330;28;20230;-59
2023/08/16 09:02:16;;;;;;;11.38;4.63;;;;;;;;;;5028842;28;20226;-59
2023/08/16 09:04:42;;;;;;;10.77;4.13;;;;;;;;;;5032055;28;20234;-59
2023/08/16 09:07:07;;;;;;;10.75;4.65;;;;;;;;;;5031932;28;20671;-60
2023/08/16 09:09:32;;;;;;;8.75;4.10;;;;;;;;;;5047928;28;20222;-59
2023/08/16 09:11:58;;;;;;;10.38;3.55;;;;;;;;;;5048618;28;20222;-59
2023/08/16 09:14:23;;;;;;;7.75;3.33;;;;;;;;;;5031723;28;20294;-59
2023/08/16 09:16:48;;;;;;;12.25;3.92;;;;;;;;;;5048558;28;20693;-59
2023/08/16 09:19:14;;;;;;;8.88;3.55;;;;;;;;;;5047504;28;20211;-59
2023/08/16 09:21:41;;;;;;;9.40;3.70;;;;;;;;;;5049298;28;20289;-59
2023/08/16 09:24:06;;;;;;;12.40;4.50;;;;;;;;;;5049589;28;20231;-59
2023/08/16 09:26:32;;;;;;;9.50;3.97;;;;;;;;;;5047305;28;20728;-59
2023/08/16 09:28:58;;;;;;;9.80;3.70;;;;;;;;;;5049032;28;20210;-59
2023/08/16 09:31:23;;;;;;;11.63;4.50;;;;;;;;;;5049148;28;20211;-59
2023/08/16 09:33:52;;;;;;;7.63;3.58;;;;;;;;;;5048002;28;20219;-59
2023/08/16 09:36:17;;;;;;;8.60;3.72;;;;;;;;;;5046943;28;20245;-59
2023/08/16 09:38:44;;;;;;;8.35;4.07;;;;;;;;;;5031981;28;20227;-59
2023/08/16 09:41:18;;;;;;;6.95;3.78;;;;;;;;;;5048331;28;20629;-59
2023/08/16 09:43:43;;;;;;;9.18;4.18;;;;;;;;;;5046480;28;20203;-59
2023/08/16 09:46:08;;;;;;;8.40;3.42;;;;;;;;;;5048851;28;20253;-59
2023/08/16 09:48:34;;;;;;;9.15;4.05;;;;;;;;;;5031552;28;20234;-59
2023/08/16 09:51:01;;;;;;;7.90;3.40;;;;;;;;;;5047295;28;20573;-59
2023/08/16 09:53:27;;;;;;;9.90;2.88;;;;;;;;;;5048026;28;20238;-59
2023/08/16 09:55:52;;;;;;;8.13;3.47;;;;;;;;;;5049115;28;20284;-59
2023/08/16 09:58:18;;;;;;;7.07;3.40;;;;;;;;;;5030092;28;20687;-59
2023/08/16 10:00:43;;;;;;;11.00;3.42;;;;;;;;;;5047042;28;20221;-59
2023/08/16 10:03:08;;;;;;;7.63;3.20;;;;;;;;;;5048174;28;20211;-60
2023/08/16 10:05:34;;;;;;;8.23;2.80;;;;;;;;;;5048368;28;20219;-59
2023/08/16 10:08:04;;;;;;;6.93;3.38;;;;;;;;;;5047225;28;20254;-59
2023/08/16 10:10:30;;;;;;;7.25;2.80;;;;;;;;;;5047974;28;20324;-59
2023/08/16 10:12:55;;;;;;;4.18;2.33;;;;;;;;;;5048252;28;20302;-59
2023/08/16 10:15:20;;;;;;;5.20;2.30;;;;;;;;;;5047252;28;20302;-59
2023/08/16 10:17:46;;;;;;;6.38;2.67;;;;;;;;;;5047386;28;20207;-59
2023/08/16 10:20:12;;;;;;;6.55;2.40;;;;;;;;;;5047703;28;20231;-59
2023/08/16 10:22:38;;;;;;;8.50;2.70;;;;;;;;;;5048807;28;20218;-59
2023/08/16 10:25:06;;;;;;;8.07;3.00;;;;;;;;;;5045010;28;20223;-59
2023/08/16 10:27:31;;;;;;;7.72;3.28;;;;;;;;;;5040205;28;20214;-59
2023/08/16 10:29:58;;;;;;;5.50;2.55;;;;;;;;;;5048280;28;20214;-59
2023/08/16 10:32:24;;;;;;;4.72;2.15;;;;;;;;;;5028201;28;20300;-59
2023/08/16 10:34:54;;;;;;;4.47;1.80;;;;;;;;;;5047445;28;20207;-59
2023/08/16 10:37:20;;;;;;;6.35;2.42;;;;;;;;;;5047721;28;20207;-59
2023/08/16 10:39:49;;;;;;;8.25;2.50;;;;;;;;;;5029753;28;20222;-59
2023/08/16 10:42:15;;;;;;;8.02;2.35;;;;;;;;;;5045507;28;20284;-59
2023/08/16 10:44:48;;;;;;;6.75;2.65;;;;;;;;;;5048087;28;20251;-59
2023/08/16 10:47:15;;;;;;;7.60;2.45;;;;;;;;;;5047244;28;20292;-59
2023/08/16 10:49:40;;;;;;;6.95;2.22;;;;;;;;;;5046999;28;20702;-59
2023/08/16 10:52:06;;;;;;;6.72;2.28;;;;;;;;;;5046310;28;20211;-59
2023/08/16 10:54:32;;;;;;;5.97;1.98;;;;;;;;;;5030194;28;20226;-59
2023/08/16 10:57:00;;;;;;;6.18;1.90;;;;;;;;;;5047808;28;20211;-59
2023/08/16 10:59:25;;;;;;;7.35;1.70;;;;;;;;;;5045523;28;20219;-59
2023/08/16 11:01:51;;;;;;;32.50;2.20;;;;;;;;;;5029531;28;20276;-59
2023/08/16 11:04:16;;;;;;;5.38;1.58;;;;;;;;;;5047408;28;20259;-59
2023/08/16 11:06:43;;;;;;;4.80;1.38;;;;;;;;;;5046229;28;20252;-59
2023/08/16 11:09:08;;;;;;;5.10;1.83;;;;;;;;;;5046808;28;20377;-59
2023/08/16 11:11:34;;;;;;;6.03;2.40;;;;;;;;;;5047946;28;20211;-59
2023/08/16 11:14:00;;;;;;;5.85;2.30;;;;;;;;;;5047117;28;20211;-59
2023/08/16 11:16:25;;;;;;;6.88;2.78;;;;;;;;;;5045474;28;20207;-59
2023/08/16 11:18:50;;;;;;;8.07;2.85;;;;;;;;;;5048074;28;20211;-59
2023/08/16 11:21:16;;;;;;;5.47;2.50;;;;;;;;;;5046685;28;20211;-59
2023/08/16 11:23:42;;;;;;;6.85;2.58;;;;;;;;;;5045346;28;20297;-59
2023/08/16 11:26:08;;;;;;;6.13;2.60;;;;;;;;;;5038505;28;20229;-59
2023/08/16 11:28:33;;;;;;;6.93;2.85;;;;;;;;;;5047793;28;20590;-59
2023/08/16 11:30:59;;;;;;;9.23;2.70;;;;;;;;;;5046224;28;20300;-59
2023/08/16 11:33:32;;;;;;;7.50;2.50;;;;;;;;;;5046693;28;20225;-59
2023/08/16 11:35:57;;;;;;;5.90;2.10;;;;;;;;;;5050763;28;20215;-59
2023/08/16 11:38:23;;;;;;;6.22;2.63;;;;;;;;;;5033001;28;20651;-59
2023/08/16 11:40:48;;;;;;;4.63;2.60;;;;;;;;;;5049458;28;20266;-59
2023/08/16 11:43:14;;;;;;;7.43;2.47;;;;;;;;;;5050445;28;20230;-59
2023/08/16 11:45:39;;;;;;;7.20;2.58;;;;;;;;;;5051521;28;20233;-59
2023/08/16 11:48:04;;;;;;;7.05;2.20;;;;;;;;;;5048867;28;20305;-59
2023/08/16 11:50:30;;;;;;;3.67;1.67;;;;;;;;;;5050612;28;20211;-59
2023/08/16 11:52:56;;;;;;;5.25;1.73;;;;;;;;;;5032997;28;20199;-59
2023/08/16 11:55:21;;;;;;;3.72;1.50;;;;;;;;;;5052758;28;20210;-59
2023/08/16 11:57:48;;;;;;;4.50;1.80;;;;;;;;;;5053705;28;20203;-59
2023/08/16 12:00:19;;;;;;;5.78;1.70;;;;;;;;;;5053860;28;20203;-59
2023/08/16 12:02:44;;;;;;;6.75;2.10;;;;;;;;;;5053952;28;20215;-59
2023/08/16 12:05:10;;;;;;;5.80;1.50;;;;;;;;;;5035400;28;20238;-59
2023/08/16 12:07:42;;;;;;;5.82;1.58;;;;;;;;;;5053541;28;20207;-59
2023/08/16 12:10:07;;;;;;;5.03;1.58;;;;;;;;;;5053775;28;20207;-59
2023/08/16 12:12:33;;;;;;;7.22;1.65;;;;;;;;;;5053481;28;20219;-59
2023/08/16 12:14:58;;;;;;;4.35;1.48;;;;;;;;;;5053549;28;20205;-59
2023/08/16 12:17:24;;;;;;;3.08;1.40;;;;;;;;;;5052852;28;20219;-59
2023/08/16 12:19:50;;;;;;;6.53;1.50;;;;;;;;;;5053973;28;20662;-59
2023/08/16 12:22:15;;;;;;;4.50;1.70;;;;;;;;;;5052863;28;20222;-59
2023/08/16 12:24:40;;;;;;;4.45;1.77;;;;;;;;;;5052993;28;20231;-59
2023/08/16 12:27:06;;;;;;;3.65;1.60;;;;;;;;;;5053293;28;20269;-60
2023/08/16 12:29:32;;;;;;;5.68;1.73;;;;;;;;;;5053686;28;20735;-59
2023/08/16 12:31:58;;;;;;;5.07;1.90;;;;;;;;;;5052982;28;20727;-59
2023/08/16 12:34:23;;;;;;;4.97;1.80;;;;;;;;;;5053159;28;20298;-59
2023/08/16 12:36:48;;;;;;;5.07;2.30;;;;;;;;;;5053171;28;20203;-59
2023/08/16 12:39:14;;;;;;;4.63;2.42;;;;;;;;;;5052238;28;20243;-59
2023/08/16 12:41:39;;;;;;;6.78;2.05;;;;;;;;;;5053560;28;20203;-59
2023/08/16 12:44:04;;;;;;;6.82;2.15;;;;;;;;;;5052630;28;20272;-59
2023/08/16 12:46:30;;;;;;;6.05;2.20;;;;;;;;;;5049263;28;20207;-59
2023/08/16 12:48:55;;;;;;;7.15;2.10;;;;;;;;;;5051186;28;20345;-59
2023/08/16 12:51:21;;;;;;;4.95;2.13;;;;;;;;;;5047725;28;20765;-59
2023/08/16 12:53:46;;;;;;;6.13;2.42;;;;;;;;;;5049469;28;20576;-59
2023/08/16 12:56:11;;;;;;;7.00;2.20;;;;;;;;;;5050157;28;20222;-59
2023/08/16 12:58:37;;;;;;;5.03;2.42;;;;;;;;;;5048928;28;20215;-59
2023/08/16 13:01:02;;;;;;;6.25;2.10;;;;;;;;;;5048271;28;20230;-60
2023/08/16 13:03:27;;;;;;;6.20;2.20;;;;;;;;;;5050121;28;20215;-59
2023/08/16 13:05:53;;;;;;;8.93;2.50;;;;;;;;;;5049770;28;20227;-59
2023/08/16 13:08:20;;;;;;;4.22;2.00;;;;;;;;;;5046889;28;20207;-59
2023/08/16 13:10:45;;;;;;;8.27;2.25;;;;;;;;;;5049932;28;20211;-59
2023/08/16 13:13:11;;;;;;;6.47;1.90;;;;;;;;;;5049602;28;20215;-59
2023/08/16 13:15:36;;;;;;;4.22;1.65;;;;;;;;;;5047606;28;20349;-59
2023/08/16 13:18:02;;;;;;;6.72;2.30;;;;;;;;;;5048890;28;20249;-59
2023/08/16 13:20:29;;;;;;;3.38;1.60;;;;;;;;;;5049962;28;20244;-59
2023/08/16 13:22:55;;;;;;;2.65;1.63;;;;;;;;;;5030676;28;20302;-59
2023/08/16 13:25:20;;;;;;;4.38;1.55;;;;;;;;;;5029539;28;20314;-59
2023/08/16 13:27:45;;;;;;;4.38;1.60;;;;;;;;;;5049315;28;20207;-59
2023/08/16 13:30:11;;;;;;;4.78;1.60;;;;;;;;;;5049470;28;20662;-59
2023/08/16 13:32:36;;;;;;;6.55;1.70;;;;;;;;;;5040478;28;20215;-59
2023/08/16 13:35:02;;;;;;;5.65;1.52;;;;;;;;;;5025195;28;20281;-59
2023/08/16 13:37:27;;;;;;;5.57;1.70;;;;;;;;;;5026210;28;20946;-59
2023/08/16 13:39:53;;;;;;;4.38;1.35;;;;;;;;;;5025607;28;20711;-59
2023/08/16 13:42:18;;;;;;;3.38;1.40;;;;;;;;;;5035723;28;20211;-59
2023/08/16 13:44:44;;;;;;;5.90;1.50;;;;;;;;;;5031194;28;20281;-59
2023/08/16 13:47:09;;;;;;;4.35;1.60;;;;;;;;;;5030738;28;20655;-59
2023/08/16 13:49:34;;;;;;;3.13;1.30;;;;;;;;;;5032876;28;20233;-59
2023/08/16 13:52:00;;;;;;;4.38;1.42;;;;;;;;;;5031409;28;20215;-59
2023/08/16 13:54:25;;;;;;;5.55;1.80;;;;;;;;;;5030610;28;20224;-59
2023/08/16 13:56:50;;;;;;;3.75;1.60;;;;;;;;;;5026077;28;20215;-59
2023/08/16 13:59:16;;;;;;;4.00;1.50;;;;;;;;;;5029343;28;20207;-59
2023/08/16 14:01:41;;;;;;;3.13;1.50;;;;;;;;;;5024493;28;20223;-59
2023/08/16 14:04:07;;;;;;;4.47;1.50;;;;;;;;;;5029529;28;20722;-58
2023/08/16 14:06:32;;;;;;;6.28;1.85;;;;;;;;;;5031951;28;20215;-59
2023/08/16 14:08:57;;;;;;;6.47;1.70;;;;;;;;;;5030028;28;20277;-59
2023/08/16 14:11:23;;;;;;;5.57;1.52;;;;;;;;;;5029673;28;20222;-59
2023/08/16 14:13:48;;;;;;;5.18;1.65;;;;;;;;;;5032174;28;20683;-59
2023/08/16 14:16:14;;;;;;;5.07;1.67;;;;;;;;;;5030192;28;20262;-59
2023/08/16 14:18:39;;;;;;;4.25;1.75;;;;;;;;;;5025812;28;20220;-59
2023/08/16 14:21:04;;;;;;;5.82;1.65;;;;;;;;;;5024579;28;20712;-59
2023/08/16 14:23:30;;;;;;;4.28;1.73;;;;;;;;;;5024055;28;20215;-59
2023/08/16 14:25:55;;;;;;;5.53;1.95;;;;;;;;;;5025333;28;20261;-59
2023/08/16 14:28:20;;;;;;;6.85;2.28;;;;;;;;;;5031978;28;20215;-59
2023/08/16 14:30:46;;;;;;;3.63;1.80;;;;;;;;;;5022671;28;20677;-59